Time;durP1;ratioP1;P1;durP2;ratioP2;P2;SDS_P1;SDS_P2;PMS_P1;PMS_P2;Temp;Humidity;BMP_temperature;BMP_pressure;BME280_temperature;BME280_humidity;BME280_pressure;Samples;Min_cycle;Max_cycle;Signal;HPM_P1;HPM_P2
2022/10/04 00:01:21;;;;;;;37.17;26.05;;;16.70;99.90;;;;;;6308587;22;20069;-79
2022/10/04 00:03:52;;;;;;;35.22;25.33;;;16.80;99.90;;;;;;6308175;22;20011;-79
2022/10/04 00:06:24;;;;;;;37.90;25.98;;;16.80;99.90;;;;;;6308507;22;20022;-79
2022/10/04 00:09:11;;;;;;;34.35;25.02;;;16.80;99.90;;;;;;6281036;22;20003;-79
2022/10/04 00:11:42;;;;;;;35.42;25.55;;;16.80;99.90;;;;;;6308454;22;20062;-79
2022/10/04 00:14:21;;;;;;;35.10;25.67;;;16.80;99.90;;;;;;6280910;22;20015;-79
2022/10/04 00:16:48;;;;;;;34.85;25.98;;;16.70;99.90;;;;;;6280979;22;20007;-79
2022/10/04 00:19:14;;;;;;;35.30;26.10;;;16.70;99.90;;;;;;6308483;22;20311;-79
2022/10/04 00:21:55;;;;;;;33.10;25.38;;;16.60;99.90;;;;;;6281012;22;20058;-79
2022/10/04 00:24:44;;;;;;;39.30;25.70;;;16.60;99.90;;;;;;6308221;22;20003;-79
2022/10/04 00:27:21;;;;;;;37.00;26.20;;;16.60;99.90;;;;;;6244339;22;19999;-79
2022/10/04 00:30:02;;;;;;;41.28;28.38;;;16.70;99.90;;;;;;6280963;22;20079;-79
2022/10/04 00:32:40;;;;;;;36.88;26.73;;;16.60;99.90;;;;;;6308065;22;20000;-79
2022/10/04 00:35:26;;;;;;;39.08;28.88;;;16.60;99.90;;;;;;6307779;22;20006;-79
2022/10/04 00:37:55;;;;;;;37.70;27.88;;;16.60;99.90;;;;;;6307678;22;20103;-79
2022/10/04 00:40:21;;;;;;;37.22;27.77;;;16.60;99.90;;;;;;6308034;22;20033;-79
2022/10/04 00:43:03;;;;;;;34.53;25.63;;;16.60;99.90;;;;;;6308067;22;19999;-79
2022/10/04 00:45:44;;;;;;;37.13;27.42;;;16.60;99.90;;;;;;6280743;22;20004;-79
2022/10/04 00:48:37;;;;;;;36.33;26.63;;;16.60;99.90;;;;;;6308244;22;19995;-79
2022/10/04 00:51:26;;;;;;;38.20;26.80;;;16.60;99.90;;;;;;6308095;22;20010;-79
2022/10/04 00:54:10;;;;;;;37.42;27.60;;;16.50;99.90;;;;;;6307989;22;20060;-79
2022/10/04 00:56:43;;;;;;;40.10;27.80;;;16.50;99.90;;;;;;6307839;22;19999;-79
2022/10/04 00:59:20;;;;;;;40.38;28.25;;;16.50;99.90;;;;;;6307975;22;20010;-79
2022/10/04 01:01:51;;;;;;;38.25;27.73;;;16.50;99.90;;;;;;6307895;22;20003;-79
2022/10/04 01:04:48;;;;;;;37.88;29.52;;;16.50;99.90;;;;;;6280266;22;20038;-79
2022/10/04 01:07:17;;;;;;;36.67;27.15;;;16.50;99.90;;;;;;6291125;22;20003;-79
2022/10/04 01:10:17;;;;;;;38.25;26.92;;;16.40;99.90;;;;;;6307833;22;19999;-79
2022/10/04 01:12:59;;;;;;;39.40;27.52;;;16.40;99.90;;;;;;6307729;22;20007;-79
2022/10/04 01:15:33;;;;;;;38.75;28.55;;;16.40;99.90;;;;;;6307846;22;20003;-79
2022/10/04 01:18:19;;;;;;;39.58;28.27;;;16.40;99.90;;;;;;6280597;22;20004;-79
2022/10/04 01:21:06;;;;;;;39.85;28.42;;;16.40;99.90;;;;;;6307816;22;19999;-79
2022/10/04 01:23:45;;;;;;;38.15;28.55;;;16.40;99.90;;;;;;6307649;22;20000;-79
2022/10/04 01:26:31;;;;;;;41.88;30.35;;;16.40;99.90;;;;;;6307751;22;20423;-79
2022/10/04 01:29:00;;;;;;;41.22;28.90;;;16.40;99.90;;;;;;6307702;22;19998;-79
2022/10/04 01:31:27;;;;;;;39.00;28.55;;;16.40;99.90;;;;;;6307558;22;20000;-79
2022/10/04 01:33:54;;;;;;;41.20;29.48;;;16.30;99.90;;;;;;6280218;22;20033;-79
2022/10/04 01:36:20;;;;;;;39.53;29.27;;;16.40;99.90;;;;;;6307715;22;20431;-79
2022/10/04 01:38:47;;;;;;;39.63;28.75;;;16.30;99.90;;;;;;6307685;22;20041;-79
2022/10/04 01:41:17;;;;;;;39.78;28.33;;;16.30;99.90;;;;;;6280222;22;20101;-79
2022/10/04 01:43:49;;;;;;;43.08;29.05;;;16.20;99.90;;;;;;6307224;22;20035;-79
2022/10/04 01:46:32;;;;;;;40.00;28.55;;;16.20;99.90;;;;;;6279852;22;20428;-79
2022/10/04 01:49:04;;;;;;;40.10;28.90;;;16.20;99.90;;;;;;6307479;22;19995;-80
2022/10/04 01:51:37;;;;;;;38.25;28.80;;;16.20;99.90;;;;;;6307523;22;19999;-79
2022/10/04 01:54:10;;;;;;;38.97;28.15;;;16.20;99.90;;;;;;6307035;22;20021;-79
2022/10/04 01:56:57;;;;;;;44.70;31.58;;;16.20;99.90;;;;;;6279908;22;20011;-79
2022/10/04 01:59:30;;;;;;;41.05;29.08;;;16.20;99.90;;;;;;6307076;22;20078;-79
2022/10/04 02:02:17;;;;;;;38.92;27.42;;;16.20;99.90;;;;;;6307369;22;20023;-79
2022/10/04 02:04:47;;;;;;;43.05;28.40;;;16.20;99.90;;;;;;6307198;22;20014;-79
2022/10/04 02:07:14;;;;;;;40.90;28.77;;;16.20;99.90;;;;;;6307301;22;20082;-79
2022/10/04 02:09:44;;;;;;;36.25;27.38;;;16.20;99.90;;;;;;6307338;22;19996;-79
2022/10/04 02:12:18;;;;;;;38.30;27.17;;;16.30;99.90;;;;;;6307328;22;19999;-79
2022/10/04 02:14:52;;;;;;;41.60;29.02;;;16.20;99.90;;;;;;6279877;22;20003;-79
2022/10/04 02:17:21;;;;;;;41.05;27.60;;;16.20;99.90;;;;;;6279947;22;20007;-79
2022/10/04 02:19:48;;;;;;;36.65;27.30;;;16.20;99.90;;;;;;6307373;22;19995;-79
2022/10/04 02:22:14;;;;;;;40.60;26.80;;;16.20;99.90;;;;;;6307172;22;19995;-79
2022/10/04 02:24:44;;;;;;;39.42;27.80;;;16.20;99.90;;;;;;6307407;22;20359;-79
2022/10/04 02:27:10;;;;;;;39.72;27.63;;;16.20;99.90;;;;;;6307164;22;20027;-79
2022/10/04 02:29:36;;;;;;;34.53;26.83;;;16.20;99.90;;;;;;6307366;22;19996;-79
2022/10/04 02:34:50;;;;;;;38.03;26.42;;;16.20;99.90;;;;;;6307122;22;20014;-79
2022/10/04 02:37:17;;;;;;;39.08;28.88;;;16.20;99.90;;;;;;6307171;22;20006;-79
2022/10/04 02:39:45;;;;;;;41.25;27.50;;;16.20;99.90;;;;;;6307215;22;20446;-79
2022/10/04 02:42:20;;;;;;;35.58;26.08;;;16.30;99.90;;;;;;6306987;22;20086;-79
2022/10/04 02:44:51;;;;;;;35.13;24.95;;;16.30;99.90;;;;;;6307213;22;19999;-79
2022/10/04 02:47:24;;;;;;;38.07;26.20;;;16.30;99.90;;;;;;6279806;22;20049;-79
2022/10/04 02:49:54;;;;;;;39.60;26.17;;;16.30;99.90;;;;;;6307139;22;20410;-79
2022/10/04 02:52:24;;;;;;;35.22;25.95;;;16.30;99.90;;;;;;6307031;22;20003;-79
2022/10/04 02:55:10;;;;;;;33.78;24.40;;;16.30;99.90;;;;;;6307228;22;20000;-79
2022/10/04 02:57:43;;;;;;;38.55;24.58;;;16.30;99.90;;;;;;6281708;22;20003;-79
2022/10/04 03:00:15;;;;;;;36.78;25.48;;;16.30;99.90;;;;;;6309092;22;20331;-79
2022/10/04 03:03:01;;;;;;;30.70;24.73;;;16.30;99.90;;;;;;6308790;22;20370;-79
2022/10/04 03:05:27;;;;;;;33.08;23.95;;;16.30;99.90;;;;;;6308784;22;20046;-79
2022/10/04 03:07:55;;;;;;;37.53;24.83;;;16.30;99.90;;;;;;6309092;22;20027;-79
2022/10/04 03:10:21;;;;;;;33.45;24.27;;;16.30;99.90;;;;;;6309132;22;19996;-79
2022/10/04 03:12:50;;;;;;;31.63;23.52;;;16.20;99.90;;;;;;6309016;22;20004;-79
2022/10/04 03:15:16;;;;;;;36.75;24.48;;;16.20;99.90;;;;;;6281636;22;20007;-79
2022/10/04 03:17:43;;;;;;;34.78;25.42;;;16.20;99.90;;;;;;6308874;22;20023;-79
2022/10/04 03:20:13;;;;;;;33.30;24.48;;;16.20;99.90;;;;;;6309096;22;19995;-79
2022/10/04 03:22:43;;;;;;;37.55;24.42;;;16.20;99.90;;;;;;6308792;22;20446;-79
2022/10/04 03:25:20;;;;;;;33.58;24.08;;;16.20;99.90;;;;;;6308962;22;19999;-79
2022/10/04 03:27:48;;;;;;;30.92;22.75;;;16.20;99.90;;;;;;6308742;22;20021;-79
2022/10/04 03:30:15;;;;;;;31.38;23.33;;;16.10;99.90;;;;;;6308837;22;20056;-79
2022/10/04 03:32:41;;;;;;;31.83;23.67;;;16.20;99.90;;;;;;6308749;22;20022;-79
2022/10/04 03:35:31;;;;;;;32.45;22.63;;;16.20;99.90;;;;;;6281284;22;20017;-79
2022/10/04 03:37:57;;;;;;;32.45;22.98;;;16.10;99.90;;;;;;6308836;22;20003;-79
2022/10/04 03:40:31;;;;;;;34.00;24.45;;;16.10;99.90;;;;;;6308737;22;20003;-79
2022/10/04 03:43:00;;;;;;;32.55;23.38;;;16.10;99.90;;;;;;6308537;22;19999;-79
2022/10/04 03:45:27;;;;;;;30.98;22.95;;;16.10;99.90;;;;;;6308804;22;19995;-79
2022/10/04 03:47:57;;;;;;;37.70;23.83;;;16.10;99.90;;;;;;6308730;22;20373;-79
2022/10/04 03:50:33;;;;;;;38.17;23.90;;;16.10;99.90;;;;;;6308794;22;20006;-80
2022/10/04 03:53:18;;;;;;;33.90;23.90;;;16.20;99.90;;;;;;6308402;22;20454;-79
2022/10/04 03:55:44;;;;;;;36.22;24.00;;;16.20;99.90;;;;;;6308633;22;20438;-79
2022/10/04 03:58:14;;;;;;;36.85;24.90;;;16.20;99.90;;;;;;6308665;22;20003;-79
2022/10/04 04:01:04;;;;;;;33.17;23.75;;;16.20;99.90;;;;;;6308679;22;20007;-79
2022/10/04 04:03:37;;;;;;;39.72;23.65;;;16.30;99.90;;;;;;6280960;22;20015;-79
2022/10/04 04:06:13;;;;;;;31.20;24.02;;;16.30;99.90;;;;;;6308709;22;20006;-79
2022/10/04 04:08:43;;;;;;;31.77;23.30;;;16.30;99.90;;;;;;6308279;22;20052;-79
2022/10/04 04:11:22;;;;;;;32.28;22.98;;;16.30;99.90;;;;;;6308550;22;19995;-79
2022/10/04 04:14:01;;;;;;;33.13;22.00;;;16.30;99.90;;;;;;6308316;22;20003;-79
2022/10/04 04:16:27;;;;;;;31.17;23.05;;;16.30;99.90;;;;;;6308505;22;20461;-79
2022/10/04 04:18:58;;;;;;;31.60;21.58;;;16.30;99.90;;;;;;6281040;22;20003;-79
2022/10/04 04:21:25;;;;;;;29.80;22.02;;;16.30;99.90;;;;;;6307833;22;19999;-79
2022/10/04 04:23:59;;;;;;;32.10;23.13;;;16.30;99.90;;;;;;6280885;22;20021;-79
2022/10/04 04:26:44;;;;;;;35.55;24.15;;;16.30;99.90;;;;;;6308505;22;20003;-79
2022/10/04 04:29:10;;;;;;;34.58;22.73;;;16.30;99.90;;;;;;6308331;22;19995;-79
2022/10/04 04:31:51;;;;;;;29.13;22.70;;;16.30;99.90;;;;;;6308466;22;20454;-79
2022/10/04 04:34:28;;;;;;;29.75;22.10;;;16.30;99.90;;;;;;6308143;22;19999;-79
2022/10/04 04:37:01;;;;;;;34.63;23.35;;;16.30;99.90;;;;;;6280844;22;20033;-79
2022/10/04 04:39:48;;;;;;;30.05;22.00;;;16.40;99.90;;;;;;6280518;22;20077;-78
2022/10/04 04:42:33;;;;;;;30.95;23.08;;;16.30;99.90;;;;;;6307689;22;20003;-79
2022/10/04 04:45:04;;;;;;;27.00;21.15;;;16.30;99.90;;;;;;6307945;22;20303;-79
2022/10/04 04:47:47;;;;;;;30.45;21.90;;;16.30;99.90;;;;;;6308120;22;19999;-79
2022/10/04 04:50:18;;;;;;;29.10;20.75;;;16.30;99.90;;;;;;6307915;22;20053;-79
2022/10/04 04:53:05;;;;;;;31.15;22.20;;;16.40;99.90;;;;;;6308013;22;20369;-79
2022/10/04 04:55:39;;;;;;;33.22;22.73;;;16.40;99.90;;;;;;6307937;22;20335;-79
2022/10/04 04:58:07;;;;;;;30.13;22.33;;;16.40;99.90;;;;;;6280467;22;20007;-79
2022/10/04 05:00:37;;;;;;;31.80;22.00;;;16.40;99.90;;;;;;6307876;22;20007;-79
2022/10/04 05:03:07;;;;;;;32.75;22.17;;;16.40;99.90;;;;;;6280256;22;20424;-79
2022/10/04 05:05:34;;;;;;;34.20;22.30;;;16.40;99.90;;;;;;6280527;22;20003;-79
2022/10/04 05:08:13;;;;;;;32.30;21.23;;;16.40;99.90;;;;;;6307902;22;20327;-79
2022/10/04 05:10:54;;;;;;;29.67;21.17;;;16.40;99.90;;;;;;6307986;22;19996;-79
2022/10/04 05:13:22;;;;;;;28.30;21.35;;;16.40;99.90;;;;;;6280268;22;20334;-79
2022/10/04 05:15:53;;;;;;;28.52;22.25;;;16.40;99.90;;;;;;6280244;22;20450;-79
2022/10/04 05:18:29;;;;;;;29.50;21.23;;;16.40;99.90;;;;;;6307512;22;20003;-79
2022/10/04 05:21:01;;;;;;;30.17;21.77;;;16.30;99.90;;;;;;6307093;22;20077;-79
2022/10/04 05:23:27;;;;;;;;;;;16.30;99.90;;;;;;6307905;22;20006;-79
2022/10/04 05:25:53;;;;;;;30.02;21.70;;;16.40;99.90;;;;;;6307564;22;19899;-79
2022/10/04 05:28:18;;;;;;;30.50;21.65;;;16.30;99.90;;;;;;6307628;22;19999;-79
2022/10/04 05:30:47;;;;;;;30.25;21.58;;;16.40;99.90;;;;;;6307573;22;20002;-79
2022/10/04 05:33:39;;;;;;;29.88;21.33;;;16.40;99.90;;;;;;6307495;22;20085;-79
2022/10/04 05:36:11;;;;;;;30.92;20.90;;;16.40;99.90;;;;;;6307482;22;19999;-79
2022/10/04 05:38:45;;;;;;;30.92;21.38;;;16.40;99.90;;;;;;6307537;22;20003;-79
2022/10/04 05:41:24;;;;;;;30.13;20.58;;;16.50;99.90;;;;;;6280194;22;20007;-79
2022/10/04 05:43:50;;;;;;;32.05;20.73;;;16.50;99.90;;;;;;6280121;22;20013;-79
2022/10/04 05:46:29;;;;;;;33.85;21.35;;;16.50;99.90;;;;;;6280047;22;20423;-79
2022/10/04 05:49:00;;;;;;;27.98;19.45;;;16.50;99.90;;;;;;6280083;22;20000;-79
2022/10/04 05:51:28;;;;;;;27.60;19.83;;;16.50;99.90;;;;;;6280160;22;19999;-79
2022/10/04 05:53:58;;;;;;;34.42;21.55;;;16.50;99.90;;;;;;6307538;22;20053;-79
2022/10/04 05:56:30;;;;;;;29.38;20.92;;;16.60;99.90;;;;;;6280057;22;19999;-79
2022/10/04 05:59:02;;;;;;;28.60;20.50;;;16.50;99.90;;;;;;6307495;22;20003;-79
2022/10/04 06:01:30;;;;;;;23.85;19.67;;;16.60;99.90;;;;;;6280008;22;20003;-79
2022/10/04 06:04:33;;;;;;;33.33;21.63;;;16.60;99.90;;;;;;6307056;22;20013;-78
2022/10/04 06:07:43;;;;;;;32.40;22.08;;;16.60;99.90;;;;;;6279982;22;20003;-79
2022/10/04 06:10:30;;;;;;;28.00;20.30;;;16.60;99.90;;;;;;6286759;22;20003;-79
2022/10/04 06:13:24;;;;;;;28.23;19.88;;;16.70;99.90;;;;;;6307277;22;20007;-79
2022/10/04 06:16:11;;;;;;;31.20;20.90;;;16.70;99.90;;;;;;6279835;22;20007;-79
2022/10/04 06:19:00;;;;;;;30.38;20.20;;;16.70;99.90;;;;;;6279931;22;20069;-79
2022/10/04 06:21:35;;;;;;;25.38;19.05;;;16.70;99.90;;;;;;6307291;22;20007;-79
2022/10/04 06:24:16;;;;;;;28.92;19.17;;;16.70;99.90;;;;;;6307047;22;20010;-79
2022/10/04 06:26:47;;;;;;;26.35;19.42;;;16.70;99.90;;;;;;6279973;22;20086;-79
2022/10/04 06:29:21;;;;;;;29.98;20.55;;;16.80;99.90;;;;;;6307225;22;20003;-79
2022/10/04 06:32:25;;;;;;;34.17;21.50;;;16.80;99.90;;;;;;6306946;22;19991;-79
2022/10/04 06:35:33;;;;;;;27.38;19.58;;;16.90;99.90;;;;;;6306200;22;20003;-79
2022/10/04 06:38:09;;;;;;;25.00;17.88;;;16.90;99.90;;;;;;6182662;23;20048;-79
2022/10/04 06:41:01;;;;;;;25.90;18.75;;;16.90;99.90;;;;;;6279248;22;19995;-79
2022/10/04 06:44:04;;;;;;;24.13;18.83;;;16.90;99.90;;;;;;6300733;22;20003;-79
2022/10/04 06:46:49;;;;;;;23.60;18.48;;;16.90;99.90;;;;;;6279722;22;19999;-79
2022/10/04 06:49:37;;;;;;;27.90;19.25;;;17.00;99.90;;;;;;6307030;22;20000;-79
2022/10/04 06:52:15;;;;;;;27.80;20.10;;;17.00;99.90;;;;;;6306630;22;20007;-79
2022/10/04 06:55:02;;;;;;;27.13;20.70;;;17.10;99.90;;;;;;6279459;22;20011;-79
2022/10/04 06:57:37;;;;;;;28.52;19.88;;;17.10;99.90;;;;;;6279735;22;20308;-79
2022/10/04 07:00:08;;;;;;;25.65;19.92;;;17.10;99.90;;;;;;6279671;22;20007;-79
2022/10/04 07:02:34;;;;;;;19.13;15.27;;;17.20;99.90;;;;;;6306938;22;20070;-79
2022/10/04 07:05:29;;;;;;;24.17;18.23;;;17.20;99.90;;;;;;6306992;22;20050;-80
2022/10/04 07:08:11;;;;;;;24.17;17.45;;;17.40;99.90;;;;;;6279755;22;20074;-80
2022/10/04 07:10:50;;;;;;;26.80;18.73;;;17.40;99.90;;;;;;6307008;22;20044;-79
2022/10/04 07:13:23;;;;;;;22.65;17.40;;;17.40;99.90;;;;;;6279352;22;20511;-79
2022/10/04 07:16:02;;;;;;;25.15;18.35;;;17.50;99.90;;;;;;6306718;22;20570;-80
2022/10/04 07:18:40;;;;;;;22.20;17.15;;;17.50;99.90;;;;;;6306835;22;20003;-79
2022/10/04 07:21:14;;;;;;;26.15;18.65;;;17.50;99.90;;;;;;6306840;22;20003;-80
2022/10/04 07:23:56;;;;;;;29.70;18.70;;;17.60;99.90;;;;;;6306592;22;19999;-79
2022/10/04 07:26:34;;;;;;;22.52;18.05;;;17.60;99.90;;;;;;6307083;22;20022;-80
2022/10/04 07:29:19;;;;;;;25.75;19.05;;;17.70;99.90;;;;;;6307099;22;19996;-80
2022/10/04 07:31:50;;;;;;;26.35;18.75;;;17.80;99.90;;;;;;6306743;22;20305;-80
2022/10/04 07:34:23;;;;;;;28.77;20.40;;;17.90;99.90;;;;;;6279645;22;20402;-80
2022/10/04 07:36:58;;;;;;;25.33;18.92;;;18.00;99.90;;;;;;6279643;22;20346;-80
2022/10/04 07:39:30;;;;;;;23.10;18.65;;;18.10;99.90;;;;;;6306886;22;20382;-79
2022/10/04 07:42:19;;;;;;;24.50;16.85;;;18.20;99.90;;;;;;6306967;22;20010;-80
2022/10/04 07:45:06;;;;;;;25.45;18.60;;;18.30;99.90;;;;;;6280627;22;20029;-80
2022/10/04 07:47:32;;;;;;;22.13;18.48;;;18.40;99.90;;;;;;6308912;22;20082;-79
2022/10/04 07:49:58;;;;;;;24.92;17.98;;;18.40;99.90;;;;;;6308720;22;19999;-79
2022/10/04 07:52:47;;;;;;;22.80;15.05;;;18.50;99.90;;;;;;6281207;22;20010;-79
2022/10/04 07:55:43;;;;;;;21.70;13.93;;;18.50;99.90;;;;;;6308396;22;20008;-79
2022/10/04 07:58:44;;;;;;;22.55;15.60;;;18.50;99.90;;;;;;6279823;22;20008;-80
2022/10/04 08:01:20;;;;;;;19.65;16.00;;;18.50;99.90;;;;;;6286205;22;20007;-79
2022/10/04 08:04:04;;;;;;;19.58;14.80;;;18.50;99.90;;;;;;6308368;22;20049;-79
2022/10/04 08:06:34;;;;;;;18.25;14.50;;;18.60;99.90;;;;;;6308515;22;20500;-79
2022/10/04 08:09:12;;;;;;;19.48;14.18;;;18.60;99.90;;;;;;6308498;22;19999;-79
2022/10/04 08:12:05;;;;;;;18.38;14.10;;;18.60;99.90;;;;;;6281155;22;20030;-79
2022/10/04 08:14:37;;;;;;;19.85;13.70;;;18.60;99.90;;;;;;6281123;22;20010;-79
2022/10/04 08:17:21;;;;;;;17.17;11.85;;;18.70;99.90;;;;;;6308636;22;19999;-79
2022/10/04 08:20:16;;;;;;;18.05;13.10;;;18.70;99.90;;;;;;6308656;22;20003;-79
2022/10/04 08:23:18;;;;;;;17.40;13.05;;;18.60;99.90;;;;;;6231680;22;20378;-79
2022/10/04 08:26:08;;;;;;;17.80;12.52;;;18.60;99.90;;;;;;6308421;22;20541;-79
2022/10/04 08:32:23;;;;;;;16.55;11.40;;;18.60;99.90;;;;;;6308304;22;20015;-79
2022/10/04 08:35:15;;;;;;;13.13;11.10;;;18.70;99.90;;;;;;6281063;22;20010;-80
2022/10/04 08:37:52;;;;;;;14.68;11.48;;;18.70;99.90;;;;;;6308428;22;20078;-80
2022/10/04 08:40:40;;;;;;;13.52;11.77;;;18.70;99.90;;;;;;6308299;22;20031;-79
2022/10/04 08:43:12;;;;;;;16.77;12.52;;;18.70;99.90;;;;;;6280633;22;20003;-79
2022/10/04 08:46:17;;;;;;;22.75;14.07;;;18.80;99.90;;;;;;6308390;22;19999;-79
2022/10/04 08:49:20;;;;;;;18.92;15.30;;;18.80;99.90;;;;;;6280753;22;20492;-79
2022/10/04 08:52:24;;;;;;;21.25;16.67;;;18.90;99.90;;;;;;6307870;22;19995;-79
2022/10/04 08:55:19;;;;;;;22.80;17.63;;;19.00;99.90;;;;;;6280291;22;20007;-79
2022/10/04 08:57:54;;;;;;;21.42;16.27;;;19.00;99.90;;;;;;6307881;22;20003;-79
2022/10/04 09:00:35;;;;;;;23.05;16.27;;;19.10;99.90;;;;;;6307989;22;20462;-79
2022/10/04 09:03:19;;;;;;;20.85;15.07;;;19.20;99.90;;;;;;6307781;22;20428;-79
2022/10/04 09:06:15;;;;;;;19.92;14.30;;;19.30;99.90;;;;;;6280831;22;20011;-79
2022/10/04 09:09:19;;;;;;;21.38;15.38;;;19.30;99.90;;;;;;6280589;22;19999;-79
2022/10/04 09:12:06;;;;;;;21.02;14.02;;;19.30;99.90;;;;;;6280399;22;20039;-79
2022/10/04 09:14:44;;;;;;;18.27;14.18;;;19.30;99.90;;;;;;6280583;22;19999;-79
2022/10/04 09:17:21;;;;;;;19.65;14.35;;;19.30;99.90;;;;;;6308002;22;19999;-79
2022/10/04 09:20:19;;;;;;;18.70;14.48;;;19.30;99.90;;;;;;6280703;22;20052;-79
2022/10/04 09:22:48;;;;;;;17.27;13.52;;;19.30;99.90;;;;;;6307718;22;20003;-79
2022/10/04 09:25:22;;;;;;;18.52;13.90;;;19.40;99.90;;;;;;6280474;22;19999;-79
2022/10/04 09:28:06;;;;;;;20.92;13.55;;;19.50;99.90;;;;;;6307807;22;20056;-79
2022/10/04 09:30:50;;;;;;;19.50;14.68;;;19.50;99.90;;;;;;6307632;22;20023;-79
2022/10/04 09:33:36;;;;;;;22.88;16.40;;;19.50;99.90;;;;;;6307872;22;20098;-79
2022/10/04 09:36:14;;;;;;;21.17;15.00;;;19.50;99.90;;;;;;6307950;22;20003;-79
2022/10/04 09:39:08;;;;;;;18.83;12.75;;;19.60;99.90;;;;;;6307587;22;20003;-79
2022/10/04 09:41:39;;;;;;;16.25;12.93;;;19.60;99.90;;;;;;6307659;22;20009;-79
2022/10/04 09:44:29;;;;;;;19.92;13.80;;;19.60;99.90;;;;;;6280140;22;20007;-79
2022/10/04 09:47:03;;;;;;;16.00;12.45;;;19.60;99.90;;;;;;6280143;22;20086;-79
2022/10/04 09:49:50;;;;;;;18.55;14.02;;;19.60;99.90;;;;;;6307738;22;19999;-79
2022/10/04 09:52:37;;;;;;;18.10;12.73;;;19.60;99.90;;;;;;6307500;22;20450;-79
2022/10/04 09:55:32;;;;;;;18.75;13.63;;;19.60;99.90;;;;;;6280239;22;19999;-79
2022/10/04 09:58:16;;;;;;;17.98;13.77;;;19.60;99.90;;;;;;6307400;22;20053;-79
2022/10/04 10:01:02;;;;;;;21.05;14.85;;;19.60;99.90;;;;;;6280176;22;20015;-79
2022/10/04 10:03:45;;;;;;;18.30;14.02;;;19.70;99.90;;;;;;6305930;22;20027;-79
2022/10/04 10:06:39;;;;;;;18.85;14.63;;;19.70;99.90;;;;;;6307120;22;20000;-79
2022/10/04 10:13:38;;;;;;;20.20;14.07;;;19.80;99.90;;;;;;6307216;22;20018;-79
2022/10/04 10:15:58;;;;;;;16.83;14.02;;;19.90;99.90;;;;;;6307222;22;20091;-79
2022/10/04 10:18:43;;;;;;;18.05;14.73;;;20.00;99.90;;;;;;6279633;22;20007;-79
2022/10/04 10:21:11;;;;;;;18.80;13.93;;;19.90;99.90;;;;;;6307212;22;20094;-79
2022/10/04 10:23:46;;;;;;;19.50;15.25;;;20.00;99.90;;;;;;6279489;22;20007;-79
2022/10/04 10:26:22;;;;;;;20.25;14.68;;;20.10;99.90;;;;;;6279697;22;19999;-79
2022/10/04 10:29:10;;;;;;;22.02;16.85;;;20.10;99.90;;;;;;6279668;22;20003;-79
2022/10/04 10:32:08;;;;;;;20.02;15.73;;;20.20;99.90;;;;;;6279389;22;20042;-79
2022/10/04 10:34:58;;;;;;;22.75;15.52;;;20.20;99.90;;;;;;6307345;22;20435;-79
2022/10/04 10:37:47;;;;;;;21.27;15.45;;;20.20;99.90;;;;;;6279819;22;20010;-79
2022/10/04 10:40:51;;;;;;;25.63;16.80;;;20.30;99.90;;;;;;6306928;22;20435;-78
2022/10/04 10:43:24;;;;;;;26.85;18.30;;;20.40;99.90;;;;;;6266739;22;20004;-79
2022/10/04 10:46:18;;;;;;;21.02;16.40;;;20.40;99.90;;;;;;6279055;22;20374;-79
2022/10/04 10:48:56;;;;;;;25.35;18.17;;;20.40;99.90;;;;;;6279011;22;20450;-79
2022/10/04 10:51:39;;;;;;;27.70;17.30;;;20.50;99.90;;;;;;6305764;22;20086;-79
2022/10/04 10:54:29;;;;;;;23.23;17.45;;;20.50;99.90;;;;;;6306014;22;20418;-79
2022/10/04 10:57:33;;;;;;;22.63;17.13;;;20.50;99.90;;;;;;6305997;22;20010;-79
2022/10/04 11:00:16;;;;;;;23.27;16.67;;;20.50;99.90;;;;;;6305657;22;20061;-80
2022/10/04 11:03:04;;;;;;;29.85;19.92;;;20.50;99.90;;;;;;6305837;22;20033;-79
2022/10/04 11:06:00;;;;;;;24.52;18.80;;;20.50;99.90;;;;;;6306094;22;20566;-79
2022/10/04 11:09:04;;;;;;;25.75;19.45;;;20.60;99.90;;;;;;6278595;22;20542;-79
2022/10/04 11:11:30;;;;;;;26.70;19.08;;;20.60;99.90;;;;;;6157250;23;20005;-78
2022/10/04 11:14:11;;;;;;;19.30;15.55;;;20.60;99.90;;;;;;6276512;22;20439;-79
2022/10/04 11:16:46;;;;;;;19.33;16.08;;;20.70;99.90;;;;;;6306874;22;20083;-78
2022/10/04 11:19:14;;;;;;;18.92;15.10;;;20.70;99.90;;;;;;6281139;22;20138;-79
2022/10/04 11:22:03;;;;;;;20.35;14.95;;;20.70;99.90;;;;;;6278496;22;20013;-79
2022/10/04 11:25:06;;;;;;;24.52;16.83;;;20.60;99.90;;;;;;6305705;22;20004;-79
2022/10/04 11:27:47;;;;;;;20.27;15.90;;;20.60;99.90;;;;;;6278215;22;20006;-79
2022/10/04 11:30:31;;;;;;;21.30;16.60;;;20.70;99.90;;;;;;6306030;22;20190;-79
2022/10/04 11:33:27;;;;;;;20.63;16.00;;;20.70;99.90;;;;;;6305605;22;19999;-79
2022/10/04 11:36:06;;;;;;;20.98;16.48;;;20.70;99.90;;;;;;6277166;22;20010;-79
2022/10/04 11:39:01;;;;;;;22.65;16.85;;;20.80;99.90;;;;;;6277399;22;20013;-79
2022/10/04 11:41:47;;;;;;;20.20;16.48;;;20.80;99.90;;;;;;6305648;22;20003;-75
2022/10/04 11:44:18;;;;;;;22.50;15.07;;;20.80;99.90;;;;;;6307528;22;20003;-75
2022/10/04 11:46:55;;;;;;;22.58;15.43;;;20.80;99.90;;;;;;6279812;22;19999;-75
2022/10/04 11:49:47;;;;;;;20.98;15.18;;;20.80;99.90;;;;;;6307137;22;20007;-75
2022/10/04 11:52:33;;;;;;;;;;;20.90;99.90;;;;;;6280183;22;20458;-75
2022/10/04 11:54:58;;;;;;;19.77;15.02;;;21.00;99.90;;;;;;6308296;22;19922;-75
2022/10/04 11:57:38;;;;;;;20.20;15.68;;;20.90;99.90;;;;;;6308756;22;20423;-76
2022/10/04 12:00:19;;;;;;;17.55;14.38;;;20.90;99.90;;;;;;6281134;22;20007;-75
2022/10/04 12:03:10;;;;;;;15.88;12.43;;;20.90;99.90;;;;;;6308347;22;20007;-75
2022/10/04 12:05:49;;;;;;;16.83;12.93;;;21.00;99.90;;;;;;6281273;22;20088;-75
2022/10/04 12:08:32;;;;;;;16.70;12.75;;;21.00;99.90;;;;;;6281188;22;20304;-76
2022/10/04 12:11:22;;;;;;;14.80;11.75;;;21.00;99.90;;;;;;6281043;22;20010;-76
2022/10/04 12:13:54;;;;;;;16.52;12.77;;;21.10;99.90;;;;;;6280854;22;20510;-76
2022/10/04 12:16:40;;;;;;;16.45;13.20;;;21.10;99.90;;;;;;6281132;22;20011;-75
2022/10/04 12:19:23;;;;;;;16.77;12.02;;;21.10;99.90;;;;;;6308319;22;19999;-76
2022/10/04 12:22:32;;;;;;;14.77;12.27;;;21.10;99.90;;;;;;6308225;22;21024;-76
2022/10/04 12:25:29;;;;;;;15.35;11.68;;;21.20;99.90;;;;;;6301967;22;20057;-75
2022/10/04 12:28:15;;;;;;;15.27;12.38;;;21.20;99.90;;;;;;6308386;22;20003;-75
2022/10/04 12:30:41;;;;;;;20.05;12.23;;;21.20;99.90;;;;;;6277646;22;20670;-75
2022/10/04 12:33:16;;;;;;;14.25;12.00;;;21.20;99.90;;;;;;6304071;22;19995;-75
2022/10/04 12:36:01;;;;;;;15.95;11.82;;;21.20;99.90;;;;;;6303968;22;20003;-75
2022/10/04 12:39:01;;;;;;;16.15;12.05;;;21.30;99.90;;;;;;6276571;22;20000;-75
2022/10/04 12:41:55;;;;;;;13.65;11.75;;;21.20;99.90;;;;;;6236052;22;20103;-75
2022/10/04 12:45:04;;;;;;;15.13;11.52;;;21.20;99.90;;;;;;6304270;22;20003;-75
2022/10/04 12:47:43;;;;;;;15.88;13.02;;;21.30;99.90;;;;;;6304353;22;20688;-75
2022/10/04 12:50:16;;;;;;;14.27;11.82;;;21.20;99.90;;;;;;6304239;22;20026;-75
2022/10/04 12:52:55;;;;;;;15.98;12.30;;;21.30;99.90;;;;;;6279689;22;20007;-75
2022/10/04 12:56:08;;;;;;;18.73;12.05;;;21.30;99.90;;;;;;6280729;22;20337;-75
2022/10/04 12:58:52;;;;;;;17.05;11.88;;;21.40;99.90;;;;;;6197045;22;20005;-75
2022/10/04 13:01:21;;;;;;;19.58;12.35;;;21.40;99.90;;;;;;6307658;22;20022;-75
2022/10/04 13:03:53;;;;;;;16.88;11.95;;;21.40;99.90;;;;;;6307471;22;20014;-75
2022/10/04 13:06:23;;;;;;;15.80;12.38;;;21.40;99.90;;;;;;6307833;22;20384;-75
2022/10/04 13:09:13;;;;;;;17.10;12.15;;;21.40;99.90;;;;;;6307681;22;20056;-75
2022/10/04 13:12:08;;;;;;;13.77;11.63;;;21.50;99.90;;;;;;6307911;22;20070;-75
2022/10/04 13:14:50;;;;;;;15.20;11.15;;;21.40;99.90;;;;;;6280143;22;20415;-76
2022/10/04 13:17:31;;;;;;;14.73;10.43;;;21.40;99.90;;;;;;6280464;22;20008;-75
2022/10/04 13:20:39;;;;;;;14.25;11.18;;;21.40;99.90;;;;;;6280306;22;20617;-75
2022/10/04 13:23:30;;;;;;;21.90;11.30;;;21.40;99.90;;;;;;6254894;22;20007;-75
2022/10/04 13:26:14;;;;;;;19.60;11.48;;;21.40;99.90;;;;;;6307529;22;20002;-79
2022/10/04 13:29:06;;;;;;;13.68;10.57;;;21.40;99.90;;;;;;6280353;22;20005;-79
2022/10/04 13:31:47;;;;;;;12.30;10.50;;;21.40;99.90;;;;;;6307694;22;20003;-79
2022/10/04 13:34:25;;;;;;;13.13;11.63;;;21.40;99.90;;;;;;6307589;22;20074;-79
2022/10/04 13:37:00;;;;;;;12.18;10.48;;;21.40;99.90;;;;;;6305441;22;20252;-79
2022/10/04 13:39:50;;;;;;;16.67;10.68;;;21.50;99.90;;;;;;6304535;22;20004;-79
2022/10/04 13:43:05;;;;;;;14.82;11.18;;;21.30;99.90;;;;;;6304319;22;20061;-79